Time;durP1;ratioP1;P1;durP2;ratioP2;P2;SDS_P1;SDS_P2;PMS_P1;PMS_P2;Temp;Humidity;BMP_temperature;BMP_pressure;BME280_temperature;BME280_humidity;BME280_pressure;Samples;Min_cycle;Max_cycle;Signal;HPM_P1;HPM_P2
2023/05/18 00:02:15;;;;;;;9.90;1.05;;;8.60;99.90;;;;;;5012974;28;20117;-67
2023/05/18 00:04:41;;;;;;;5.22;1.02;;;8.60;99.90;;;;;;5028061;28;20113;-67
2023/05/18 00:07:08;;;;;;;3.58;1.08;;;8.60;99.90;;;;;;5012754;28;20022;-68
2023/05/18 00:09:35;;;;;;;2.65;1.27;;;8.60;99.90;;;;;;5012846;28;20378;-67
2023/05/18 00:12:02;;;;;;;3.63;1.05;;;8.60;99.90;;;;;;5012772;28;20113;-68
2023/05/18 00:14:28;;;;;;;6.53;1.63;;;8.50;99.90;;;;;;5012836;28;20025;-67
2023/05/18 00:16:54;;;;;;;4.40;1.13;;;8.50;99.90;;;;;;5012692;28;20129;-67
2023/05/18 00:19:21;;;;;;;8.48;1.20;;;8.50;99.90;;;;;;5013085;28;20065;-66
2023/05/18 00:21:47;;;;;;;14.30;2.25;;;8.50;99.90;;;;;;5012874;28;20048;-67
2023/05/18 00:24:16;;;;;;;10.75;1.40;;;8.40;99.90;;;;;;5012679;28;20030;-67
2023/05/18 00:26:44;;;;;;;4.35;1.50;;;8.40;99.90;;;;;;5012608;28;20026;-67
2023/05/18 00:29:10;;;;;;;2.97;1.08;;;8.40;99.90;;;;;;5012724;28;20033;-67
2023/05/18 00:31:38;;;;;;;5.25;1.65;;;8.40;99.90;;;;;;5012710;28;20068;-67
2023/05/18 00:34:08;;;;;;;3.63;1.23;;;8.30;99.90;;;;;;5012761;28;20025;-66
2023/05/18 00:36:34;;;;;;;8.90;1.23;;;8.40;99.90;;;;;;5012882;28;20015;-67
2023/05/18 00:39:01;;;;;;;6.50;1.35;;;8.30;99.90;;;;;;5013997;28;20439;-67
2023/05/18 00:41:27;;;;;;;5.25;1.35;;;8.30;99.90;;;;;;5016158;28;20022;-67
2023/05/18 00:43:56;;;;;;;3.58;1.15;;;8.30;99.90;;;;;;5016154;28;20096;-68
2023/05/18 00:46:24;;;;;;;1.95;1.05;;;8.30;99.90;;;;;;5016072;28;20010;-67
2023/05/18 00:48:51;;;;;;;3.45;0.60;;;8.30;99.90;;;;;;5016236;28;20088;-68
2023/05/18 00:51:22;;;;;;;3.50;1.38;;;8.30;99.90;;;;;;5016071;28;20079;-67
2023/05/18 00:53:49;;;;;;;6.90;1.10;;;8.30;99.90;;;;;;5016070;28;20014;-67
2023/05/18 00:56:15;;;;;;;5.47;0.85;;;8.30;99.90;;;;;;5015968;28;20084;-67
2023/05/18 00:58:41;;;;;;;4.63;1.08;;;8.30;99.90;;;;;;5015926;28;20026;-67
2023/05/18 01:01:10;;;;;;;10.13;1.15;;;8.30;99.90;;;;;;5015837;28;20025;-69
2023/05/18 01:03:40;;;;;;;6.85;1.50;;;8.30;99.90;;;;;;5015581;28;20054;-67
2023/05/18 01:06:06;;;;;;;11.18;2.38;;;8.30;99.90;;;;;;5015660;28;20105;-67
2023/05/18 01:08:33;;;;;;;2.45;1.10;;;8.30;99.90;;;;;;5015693;28;20402;-67
2023/05/18 01:11:13;;;;;;;6.43;1.35;;;8.30;99.90;;;;;;5015563;28;20033;-67
2023/05/18 01:14:00;;;;;;;4.40;1.02;;;8.30;99.90;;;;;;5015696;28;20029;-67
2023/05/18 01:16:32;;;;;;;5.35;1.30;;;8.20;99.90;;;;;;5030494;28;20061;-67
2023/05/18 01:19:24;;;;;;;1.95;1.38;;;8.20;99.90;;;;;;5015609;28;20018;-67
2023/05/18 01:22:02;;;;;;;3.33;1.65;;;8.20;99.90;;;;;;5013478;28;20034;-67
2023/05/18 01:24:44;;;;;;;6.10;1.92;;;8.20;99.90;;;;;;5030600;28;20061;-68
2023/05/18 01:27:13;;;;;;;5.93;0.98;;;8.20;99.90;;;;;;5015302;28;20026;-67
2023/05/18 01:29:40;;;;;;;4.50;2.20;;;8.20;99.90;;;;;;5015327;28;20387;-67
2023/05/18 01:32:08;;;;;;;2.22;1.13;;;8.20;99.90;;;;;;5015261;28;20097;-67
2023/05/18 01:34:34;;;;;;;6.63;1.15;;;8.20;99.90;;;;;;5015216;28;20054;-67
2023/05/18 01:37:00;;;;;;;8.23;1.90;;;8.20;99.90;;;;;;5015091;28;20386;-67
2023/05/18 01:39:25;;;;;;;6.22;1.80;;;8.10;99.90;;;;;;5030420;28;20033;-68
2023/05/18 01:42:02;;;;;;;7.38;1.30;;;8.20;99.90;;;;;;5015115;28;20119;-67
2023/05/18 01:44:39;;;;;;;5.07;1.30;;;8.20;99.90;;;;;;5015052;28;20033;-68
2023/05/18 01:47:14;;;;;;;4.47;1.13;;;8.20;99.90;;;;;;5015018;28;20022;-68
2023/05/18 01:49:55;;;;;;;3.78;1.30;;;8.20;99.90;;;;;;5014558;28;20061;-67
2023/05/18 01:52:36;;;;;;;5.57;1.30;;;8.20;99.90;;;;;;5014732;28;20104;-68
2023/05/18 01:55:03;;;;;;;2.70;1.15;;;8.20;99.90;;;;;;5014873;28;20022;-68
2023/05/18 01:57:31;;;;;;;1.97;1.00;;;8.20;99.90;;;;;;5014883;28;20055;-67
2023/05/18 02:00:01;;;;;;;6.45;1.73;;;8.20;99.90;;;;;;5014778;28;20263;-68
2023/05/18 02:02:27;;;;;;;3.15;1.40;;;8.20;99.90;;;;;;5014735;28;20026;-67
2023/05/18 02:04:53;;;;;;;5.10;1.88;;;8.20;99.90;;;;;;5014654;28;20030;-67
2023/05/18 02:07:18;;;;;;;3.88;1.40;;;8.20;99.90;;;;;;5014578;28;20549;-67
2023/05/18 02:09:44;;;;;;;6.63;2.22;;;8.20;99.90;;;;;;5014616;28;20033;-67
2023/05/18 02:12:10;;;;;;;4.05;1.15;;;8.10;99.90;;;;;;5014435;28;20037;-67
2023/05/18 02:14:36;;;;;;;5.57;1.25;;;8.20;99.90;;;;;;5029721;28;20378;-66
2023/05/18 02:17:02;;;;;;;4.53;1.33;;;8.20;99.90;;;;;;5014377;28;20046;-67
2023/05/18 02:19:31;;;;;;;5.38;1.23;;;8.20;99.90;;;;;;5014349;28;20030;-66
2023/05/18 02:22:00;;;;;;;3.13;1.20;;;8.20;99.90;;;;;;5014343;28;20026;-68
2023/05/18 02:24:26;;;;;;;7.63;1.30;;;8.10;99.90;;;;;;5014317;28;20057;-68
2023/05/18 02:26:52;;;;;;;1.65;1.23;;;8.10;99.90;;;;;;5014169;28;20471;-69
2023/05/18 02:29:17;;;;;;;6.70;1.30;;;8.10;99.90;;;;;;5014147;28;20101;-68
2023/05/18 02:31:43;;;;;;;3.53;1.50;;;8.10;99.90;;;;;;5029356;28;20022;-68
2023/05/18 02:34:09;;;;;;;6.63;1.92;;;8.10;99.90;;;;;;5014422;28;20018;-67
2023/05/18 02:36:36;;;;;;;6.03;1.20;;;8.00;99.90;;;;;;5014007;28;20022;-67
2023/05/18 02:39:05;;;;;;;4.25;1.30;;;8.00;99.90;;;;;;5014050;28;20026;-68
2023/05/18 02:41:32;;;;;;;9.10;1.73;;;8.00;99.90;;;;;;5013951;28;20022;-67
2023/05/18 02:43:57;;;;;;;4.28;1.23;;;8.00;99.90;;;;;;5013941;28;20033;-67
2023/05/18 02:46:26;;;;;;;5.80;1.58;;;8.00;99.90;;;;;;5013927;28;20022;-67
2023/05/18 02:48:52;;;;;;;2.00;1.15;;;8.00;99.90;;;;;;5013834;28;20022;-68
2023/05/18 02:51:17;;;;;;;7.78;1.95;;;8.00;99.90;;;;;;5013826;28;20084;-68
2023/05/18 02:53:43;;;;;;;2.67;1.40;;;8.00;99.90;;;;;;5013797;28;20025;-68
2023/05/18 02:56:11;;;;;;;10.10;1.85;;;7.90;99.90;;;;;;5028841;28;20030;-68
2023/05/18 02:58:37;;;;;;;2.92;1.33;;;7.90;99.90;;;;;;5028908;28;20513;-68
2023/05/18 03:01:06;;;;;;;10.95;1.88;;;7.90;99.90;;;;;;5013430;28;20029;-69
2023/05/18 03:03:33;;;;;;;7.18;1.65;;;8.00;99.90;;;;;;5013710;28;20099;-69
2023/05/18 03:05:59;;;;;;;6.18;1.90;;;7.90;99.90;;;;;;5028642;28;20037;-68
2023/05/18 03:08:25;;;;;;;2.90;1.40;;;7.90;99.90;;;;;;5013462;28;20033;-68
2023/05/18 03:10:51;;;;;;;4.15;1.60;;;7.80;99.90;;;;;;5013687;28;20014;-68
2023/05/18 03:13:17;;;;;;;8.15;1.40;;;7.90;99.90;;;;;;5013542;28;20029;-67
2023/05/18 03:15:45;;;;;;;3.53;1.80;;;7.80;99.90;;;;;;5013402;28;20072;-68
2023/05/18 03:18:11;;;;;;;4.93;2.20;;;7.80;99.90;;;;;;5013137;28;20053;-68
2023/05/18 03:20:37;;;;;;;5.45;1.52;;;7.80;99.90;;;;;;5013303;28;20478;-68
2023/05/18 03:23:04;;;;;;;6.47;1.23;;;7.80;99.90;;;;;;5013309;28;20490;-68
2023/05/18 03:25:31;;;;;;;3.60;1.17;;;7.80;99.90;;;;;;5028485;28;20041;-69
2023/05/18 03:27:57;;;;;;;3.20;1.52;;;7.80;99.90;;;;;;5028353;28;20026;-68
2023/05/18 03:30:23;;;;;;;5.35;1.77;;;7.90;99.90;;;;;;5013231;28;20033;-67
2023/05/18 03:32:49;;;;;;;6.95;1.85;;;7.80;99.90;;;;;;5028380;28;20022;-68
2023/05/18 03:35:15;;;;;;;2.42;1.70;;;7.80;99.90;;;;;;5013138;28;20125;-67
2023/05/18 03:37:41;;;;;;;6.10;1.30;;;7.90;99.90;;;;;;5013012;28;20100;-68
2023/05/18 03:40:15;;;;;;;7.43;1.60;;;7.80;99.90;;;;;;5013155;28;20038;-67
2023/05/18 03:42:41;;;;;;;5.75;1.50;;;7.80;99.90;;;;;;5028208;28;20042;-68
2023/05/18 03:45:10;;;;;;;5.32;1.92;;;7.80;99.90;;;;;;5028243;28;20034;-67
2023/05/18 03:47:37;;;;;;;1.85;1.10;;;7.80;99.90;;;;;;5012886;28;20025;-67
2023/05/18 03:50:04;;;;;;;6.22;1.58;;;7.70;99.90;;;;;;5012970;28;20026;-68
2023/05/18 03:52:32;;;;;;;8.82;1.30;;;7.60;99.90;;;;;;5028165;28;20502;-69
2023/05/18 03:55:02;;;;;;;5.25;1.42;;;7.60;99.90;;;;;;5012965;28;20097;-67
2023/05/18 03:57:28;;;;;;;11.10;1.90;;;7.60;99.90;;;;;;5012942;28;20490;-67
2023/05/18 03:59:55;;;;;;;2.30;1.40;;;7.50;99.90;;;;;;5012897;28;20026;-67
2023/05/18 04:02:20;;;;;;;6.22;1.88;;;7.50;99.90;;;;;;5012925;28;20506;-67
2023/05/18 04:04:46;;;;;;;5.47;2.33;;;7.60;99.90;;;;;;5028096;28;20036;-67
2023/05/18 04:07:16;;;;;;;5.70;2.35;;;7.50;99.90;;;;;;5012872;28;20530;-67
2023/05/18 04:09:42;;;;;;;4.80;1.60;;;7.50;99.90;;;;;;5013094;28;20077;-67
2023/05/18 04:12:09;;;;;;;2.72;1.67;;;7.60;99.90;;;;;;5012729;28;20036;-67
2023/05/18 04:14:34;;;;;;;7.53;1.70;;;7.50;99.90;;;;;;5015256;28;20046;-68
2023/05/18 04:17:06;;;;;;;7.22;1.48;;;7.50;99.90;;;;;;5016452;28;20110;-68
2023/05/18 04:19:35;;;;;;;6.50;1.60;;;7.50;99.90;;;;;;5016672;28;20116;-67
2023/05/18 04:22:03;;;;;;;3.47;1.42;;;7.60;99.90;;;;;;5016661;28;20037;-66
2023/05/18 04:24:33;;;;;;;11.43;2.03;;;7.60;99.90;;;;;;5016517;28;20482;-66
2023/05/18 04:26:59;;;;;;;8.75;1.90;;;7.60;99.90;;;;;;5016374;28;20060;-67
2023/05/18 04:29:26;;;;;;;2.67;1.55;;;7.60;99.90;;;;;;5016429;28;20073;-67
2023/05/18 04:31:58;;;;;;;7.50;1.70;;;7.50;99.90;;;;;;5016414;28;20389;-67
2023/05/18 04:34:25;;;;;;;3.35;1.33;;;7.60;99.90;;;;;;5016404;28;20427;-68
2023/05/18 04:36:53;;;;;;;7.47;1.67;;;7.60;99.90;;;;;;5016152;28;20387;-67
2023/05/18 04:39:22;;;;;;;5.47;1.67;;;7.60;99.90;;;;;;5016362;28;20036;-67
2023/05/18 04:41:49;;;;;;;7.13;1.85;;;7.60;99.90;;;;;;5016250;28;20044;-67
2023/05/18 04:44:17;;;;;;;3.80;1.90;;;7.50;99.90;;;;;;5016239;28;20112;-66
2023/05/18 04:46:46;;;;;;;7.50;1.55;;;7.60;99.90;;;;;;5016106;28;20057;-68
2023/05/18 04:49:12;;;;;;;9.98;1.95;;;7.60;99.90;;;;;;5016033;28;20516;-67
2023/05/18 04:51:38;;;;;;;4.18;1.35;;;7.60;99.90;;;;;;5016360;28;20087;-66
2023/05/18 04:54:05;;;;;;;4.00;1.63;;;7.70;99.90;;;;;;5031199;28;20049;-67
2023/05/18 04:56:30;;;;;;;4.07;1.40;;;7.70;99.90;;;;;;5015957;28;20029;-66
2023/05/18 04:58:58;;;;;;;6.65;1.85;;;7.70;99.90;;;;;;5015924;28;20108;-67
2023/05/18 05:01:24;;;;;;;12.00;2.08;;;7.70;99.90;;;;;;5015881;28;20482;-67
2023/05/18 05:03:50;;;;;;;4.80;1.70;;;7.70;99.90;;;;;;5015789;28;20033;-67
2023/05/18 05:06:15;;;;;;;4.90;1.75;;;7.80;99.90;;;;;;5030873;28;20037;-67
2023/05/18 05:08:41;;;;;;;3.88;1.35;;;7.80;99.90;;;;;;5015638;28;20037;-67
2023/05/18 05:11:07;;;;;;;3.78;1.67;;;7.80;99.90;;;;;;5015556;28;20029;-67
2023/05/18 05:13:34;;;;;;;9.02;3.15;;;7.90;99.90;;;;;;5030848;28;20022;-67
2023/05/18 05:16:00;;;;;;;;;;;7.90;99.90;;;;;;5015956;28;20018;-67
2023/05/18 05:18:26;;;;;;;8.63;2.08;;;7.90;99.90;;;;;;5015415;28;20044;-67
2023/05/18 05:20:53;;;;;;;2.00;1.35;;;8.00;99.90;;;;;;5015475;28;20030;-67
2023/05/18 05:23:18;;;;;;;8.00;1.70;;;8.00;99.90;;;;;;5014199;28;20552;-68
2023/05/18 05:25:45;;;;;;;6.60;2.03;;;8.00;99.90;;;;;;5015392;28;20034;-67
2023/05/18 05:28:11;;;;;;;4.10;1.67;;;8.00;99.90;;;;;;5015321;28;20041;-66
2023/05/18 05:30:37;;;;;;;9.02;2.03;;;8.00;99.90;;;;;;5015322;28;20066;-67
2023/05/18 05:33:03;;;;;;;7.28;1.58;;;8.10;99.90;;;;;;5015258;28;20554;-67
2023/05/18 05:35:29;;;;;;;10.98;2.20;;;8.10;99.90;;;;;;5015149;28;20030;-67
2023/05/18 05:37:55;;;;;;;3.75;1.50;;;8.30;99.90;;;;;;5015079;28;20391;-68
2023/05/18 05:40:20;;;;;;;6.25;1.70;;;8.60;99.90;;;;;;5015147;28;20030;-68
2023/05/18 05:42:46;;;;;;;6.15;2.90;;;8.80;99.90;;;;;;5015069;28;20030;-66
2023/05/18 05:45:13;;;;;;;3.20;2.05;;;8.70;99.90;;;;;;5015028;28;20534;-66
2023/05/18 05:47:39;;;;;;;7.55;1.77;;;8.60;99.90;;;;;;5014866;28;20030;-68
2023/05/18 05:50:06;;;;;;;4.13;1.60;;;8.60;99.90;;;;;;5014990;28;20496;-67
2023/05/18 05:52:32;;;;;;;10.63;2.00;;;8.70;99.90;;;;;;5014946;28;20034;-68
2023/05/18 05:54:57;;;;;;;7.68;1.65;;;8.60;99.90;;;;;;5014854;28;20471;-67
2023/05/18 05:57:24;;;;;;;6.40;1.70;;;8.60;99.90;;;;;;5014765;28;20030;-67
2023/05/18 05:59:50;;;;;;;10.82;2.83;;;8.60;99.90;;;;;;5014745;28;20026;-67
2023/05/18 06:02:16;;;;;;;6.35;1.50;;;8.70;99.90;;;;;;5014772;28;20093;-68
2023/05/18 06:04:42;;;;;;;13.00;2.42;;;8.70;99.90;;;;;;5014659;28;20425;-66
2023/05/18 06:07:08;;;;;;;7.07;1.80;;;8.80;99.90;;;;;;5014607;28;20109;-67
2023/05/18 06:09:33;;;;;;;4.85;1.20;;;8.90;99.90;;;;;;5014604;28;20526;-66
2023/05/18 06:11:59;;;;;;;6.90;2.15;;;9.00;99.90;;;;;;5014541;28;20105;-67
2023/05/18 06:14:25;;;;;;;9.02;1.58;;;9.10;99.90;;;;;;5014548;28;20041;-67
2023/05/18 06:16:50;;;;;;;2.67;1.73;;;9.10;99.90;;;;;;5014404;28;20562;-67
2023/05/18 06:19:16;;;;;;;14.90;1.88;;;9.20;99.90;;;;;;5014490;28;20026;-65
2023/05/18 06:21:42;;;;;;;5.97;1.70;;;9.40;99.90;;;;;;5014411;28;20548;-68
2023/05/18 06:24:08;;;;;;;6.28;1.80;;;9.50;99.90;;;;;;5014311;28;20037;-68
2023/05/18 06:26:33;;;;;;;4.88;1.75;;;9.80;99.90;;;;;;5029550;28;20386;-66
2023/05/18 06:28:59;;;;;;;12.32;1.73;;;10.10;99.90;;;;;;5014255;28;20470;-68
2023/05/18 06:31:24;;;;;;;4.07;1.13;;;10.30;99.90;;;;;;5014186;28;20038;-66
2023/05/18 06:33:50;;;;;;;2.42;1.20;;;10.40;99.90;;;;;;5029305;28;20034;-67
2023/05/18 06:36:16;;;;;;;7.85;1.80;;;10.50;99.90;;;;;;5028866;28;20505;-68
2023/05/18 06:38:41;;;;;;;5.30;1.63;;;11.30;99.90;;;;;;5014032;28;20029;-67
2023/05/18 06:41:07;;;;;;;4.05;1.17;;;12.50;99.90;;;;;;5014005;28;20033;-66
2023/05/18 06:43:33;;;;;;;6.05;1.30;;;13.00;99.90;;;;;;5013964;28;20034;-67
2023/05/18 06:45:58;;;;;;;2.28;1.38;;;13.80;99.90;;;;;;5029120;28;20486;-68
2023/05/18 06:48:26;;;;;;;2.55;1.10;;;14.50;99.90;;;;;;5013813;28;20038;-67
2023/05/18 06:50:52;;;;;;;3.03;1.08;;;14.90;99.90;;;;;;5013906;28;20109;-69
2023/05/18 06:53:17;;;;;;;5.57;1.30;;;15.60;99.90;;;;;;5013843;28;20596;-67
2023/05/18 06:55:43;;;;;;;10.25;1.45;;;16.40;99.90;;;;;;5013746;28;20026;-68
2023/05/18 06:58:09;;;;;;;4.25;1.13;;;16.80;99.40;;;;;;5013726;28;20494;-67
2023/05/18 07:00:34;;;;;;;3.55;1.38;;;17.20;98.90;;;;;;5013433;28;20557;-68
2023/05/18 07:03:00;;;;;;;4.45;0.93;;;17.10;98.20;;;;;;5013643;28;20474;-67
2023/05/18 07:05:27;;;;;;;4.78;1.23;;;17.10;98.00;;;;;;5028721;28;20052;-68
2023/05/18 07:07:52;;;;;;;4.20;1.30;;;17.10;98.30;;;;;;5013482;28;20049;-67
2023/05/18 07:10:18;;;;;;;8.93;2.38;;;17.00;98.60;;;;;;5013454;28;20026;-67
2023/05/18 07:12:44;;;;;;;3.35;1.45;;;16.20;99.10;;;;;;5013495;28;20076;-67
2023/05/18 07:15:10;;;;;;;5.20;1.20;;;14.90;99.90;;;;;;5013147;28;20042;-68
2023/05/18 07:17:37;;;;;;;3.97;1.40;;;13.90;99.90;;;;;;5013211;28;20045;-67
2023/05/18 07:20:05;;;;;;;4.95;1.00;;;13.20;99.90;;;;;;5013409;28;20026;-67
2023/05/18 07:22:31;;;;;;;;;;;12.70;99.90;;;;;;5013785;28;20026;-67
2023/05/18 07:24:57;;;;;;;6.88;2.30;;;12.50;99.90;;;;;;5013490;28;19951;-67
2023/05/18 07:27:23;;;;;;;6.80;1.50;;;12.30;99.90;;;;;;5013173;28;20085;-69
2023/05/18 07:29:49;;;;;;;6.07;1.63;;;12.10;99.90;;;;;;5012914;28;20065;-69
2023/05/18 07:32:15;;;;;;;7.50;1.48;;;12.00;99.90;;;;;;5013358;28;20037;-67
2023/05/18 07:34:42;;;;;;;8.80;1.10;;;11.70;99.90;;;;;;5011013;28;20040;-67
2023/05/18 07:37:08;;;;;;;16.80;2.13;;;11.60;99.90;;;;;;5004608;28;20041;-67
2023/05/18 07:39:34;;;;;;;2.72;1.45;;;11.40;99.90;;;;;;4991529;28;20042;-68
2023/05/18 07:42:05;;;;;;;3.80;1.33;;;11.30;99.90;;;;;;4991506;28;20394;-67
2023/05/18 07:44:31;;;;;;;10.88;3.80;;;11.10;99.90;;;;;;4991385;28;20035;-66
2023/05/18 07:46:57;;;;;;;5.40;1.15;;;11.00;99.90;;;;;;4991336;28;20511;-68
2023/05/18 07:49:22;;;;;;;5.55;1.52;;;11.10;99.90;;;;;;4993547;28;20030;-67
2023/05/18 07:51:49;;;;;;;7.43;1.05;;;11.20;99.90;;;;;;4995456;28;20029;-67
2023/05/18 07:54:15;;;;;;;8.77;1.83;;;11.10;99.90;;;;;;4995457;28;20064;-67
2023/05/18 07:56:42;;;;;;;6.95;1.48;;;11.20;99.90;;;;;;4995480;28;20061;-66
2023/05/18 07:59:09;;;;;;;12.07;2.00;;;11.30;99.90;;;;;;4995296;28;20027;-67
2023/05/18 08:01:36;;;;;;;6.10;1.92;;;11.40;99.90;;;;;;4995308;28;20048;-67
2023/05/18 08:04:02;;;;;;;3.13;1.17;;;11.60;99.90;;;;;;4996015;28;20092;-66
2023/05/18 08:06:32;;;;;;;2.72;1.27;;;11.80;99.90;;;;;;4996984;28;20031;-66
2023/05/18 08:08:57;;;;;;;2.80;1.48;;;12.00;99.90;;;;;;4997170;28;20114;-68
2023/05/18 08:11:23;;;;;;;5.30;1.67;;;12.00;99.90;;;;;;4997140;28;20089;-68
2023/05/18 08:13:49;;;;;;;7.72;1.70;;;12.10;99.90;;;;;;4997222;28;20030;-68
2023/05/18 08:16:15;;;;;;;5.60;1.88;;;11.90;99.90;;;;;;4997100;28;20080;-66
2023/05/18 08:18:40;;;;;;;7.38;1.58;;;11.90;99.90;;;;;;4996926;28;20055;-66
2023/05/18 08:21:08;;;;;;;2.95;1.55;;;11.90;99.90;;;;;;4997032;28;20101;-67
2023/05/18 08:23:35;;;;;;;8.02;1.63;;;11.90;99.90;;;;;;4997058;28;20394;-67
2023/05/18 08:26:02;;;;;;;4.03;1.30;;;11.90;99.90;;;;;;4996904;28;20026;-67
2023/05/18 08:28:28;;;;;;;9.85;1.55;;;11.90;99.90;;;;;;4996904;28;20077;-67
2023/05/18 08:30:54;;;;;;;10.13;1.48;;;11.80;99.90;;;;;;4996865;28;20495;-67
2023/05/18 08:33:20;;;;;;;3.92;1.50;;;11.60;99.90;;;;;;4996743;28;20097;-68
2023/05/18 08:35:46;;;;;;;2.38;1.20;;;11.60;99.90;;;;;;4996918;28;20058;-66
2023/05/18 08:38:11;;;;;;;6.80;1.50;;;11.50;99.90;;;;;;5011758;28;20022;-66
2023/05/18 08:41:04;;;;;;;16.65;1.70;;;11.60;99.90;;;;;;5016000;28;20046;-68
2023/05/18 08:43:32;;;;;;;10.57;1.98;;;11.60;99.90;;;;;;5016359;28;20149;-67
2023/05/18 08:46:01;;;;;;;;;;;11.90;99.90;;;;;;5016524;28;20032;-67
2023/05/18 08:48:30;;;;;;;12.30;1.73;;;12.00;99.90;;;;;;5016063;28;19910;-66
2023/05/18 08:50:57;;;;;;;7.03;1.42;;;11.90;99.90;;;;;;5016036;28;20371;-67
2023/05/18 08:53:24;;;;;;;4.82;1.67;;;11.90;99.90;;;;;;5016114;28;20398;-68
2023/05/18 08:55:53;;;;;;;11.32;1.50;;;11.90;99.90;;;;;;5016055;28;20026;-69
2023/05/18 08:58:21;;;;;;;7.00;1.63;;;12.00;99.90;;;;;;5015980;28;20390;-67
2023/05/18 09:00:52;;;;;;;6.45;1.27;;;11.90;99.90;;;;;;5015200;28;20092;-68
2023/05/18 09:03:20;;;;;;;3.20;1.48;;;11.70;99.90;;;;;;5013718;28;20046;-69
2023/05/18 09:05:46;;;;;;;;;;;11.70;99.90;;;;;;4975008;28;20043;-68
2023/05/18 09:08:14;;;;;;;7.72;1.35;;;11.60;99.90;;;;;;4974527;28;20025;-66
2023/05/18 09:10:41;;;;;;;;;;;11.70;99.90;;;;;;4958541;28;20035;-67
2023/05/18 09:13:10;;;;;;;3.95;1.15;;;11.80;99.90;;;;;;4974604;28;20340;-68
2023/05/18 09:15:36;;;;;;;11.40;1.92;;;12.10;99.90;;;;;;4974368;28;20027;-67
2023/05/18 09:18:04;;;;;;;5.03;1.23;;;12.20;99.90;;;;;;4971200;28;20500;-66
2023/05/18 09:20:29;;;;;;;9.18;1.42;;;12.20;99.90;;;;;;4974678;28;20456;-67
2023/05/18 09:22:55;;;;;;;6.30;1.77;;;12.30;99.90;;;;;;4971884;28;20066;-67
2023/05/18 09:25:23;;;;;;;8.30;1.50;;;12.40;99.90;;;;;;4974516;28;20037;-68
2023/05/18 09:27:51;;;;;;;5.32;1.10;;;12.60;99.90;;;;;;4973953;28;20196;-68
2023/05/18 09:30:17;;;;;;;7.50;1.40;;;12.70;99.90;;;;;;4974143;28;20039;-68
2023/05/18 09:32:46;;;;;;;4.35;1.25;;;12.80;99.90;;;;;;4974248;28;20180;-67
2023/05/18 09:35:12;;;;;;;9.20;1.45;;;12.90;99.90;;;;;;4991983;28;20483;-68
2023/05/18 09:37:42;;;;;;;4.07;1.05;;;12.90;99.90;;;;;;4990677;28;20046;-67
2023/05/18 09:40:09;;;;;;;5.00;1.73;;;12.70;99.90;;;;;;4993585;28;20039;-68
2023/05/18 09:42:35;;;;;;;5.50;1.67;;;12.80;99.90;;;;;;4999328;28;20033;-68
2023/05/18 09:45:01;;;;;;;4.78;1.27;;;12.90;99.90;;;;;;5031120;28;20394;-68
2023/05/18 09:47:27;;;;;;;6.97;1.58;;;13.10;99.90;;;;;;5030347;28;20563;-69
2023/05/18 09:49:56;;;;;;;3.38;1.27;;;13.30;99.90;;;;;;5013062;28;20034;-66
2023/05/18 09:52:22;;;;;;;2.00;1.05;;;13.40;99.90;;;;;;4996457;28;20046;-67
2023/05/18 09:55:01;;;;;;;4.90;1.10;;;13.30;99.90;;;;;;5013107;28;20054;-67
2023/05/18 09:57:26;;;;;;;6.60;1.40;;;13.20;99.90;;;;;;5013211;28;20029;-68
2023/05/18 10:00:09;;;;;;;5.20;1.52;;;13.20;99.90;;;;;;5013084;28;20061;-68
2023/05/18 10:02:46;;;;;;;5.55;1.50;;;13.10;99.90;;;;;;5013021;28;20036;-68
2023/05/18 10:05:19;;;;;;;7.95;1.67;;;12.90;99.90;;;;;;5012963;28;20037;-68
2023/05/18 10:07:45;;;;;;;2.58;1.40;;;12.80;99.90;;;;;;4997104;28;20497;-70
2023/05/18 10:10:11;;;;;;;9.32;1.73;;;12.90;99.90;;;;;;5013321;28;20030;-68
2023/05/18 10:12:39;;;;;;;9.05;1.65;;;13.10;99.90;;;;;;5012738;28;20494;-68
2023/05/18 10:15:08;;;;;;;3.22;1.70;;;13.10;99.90;;;;;;5013729;28;20413;-69
2023/05/18 10:17:36;;;;;;;5.60;1.33;;;13.30;99.90;;;;;;5013459;28;20510;-69
2023/05/18 10:20:04;;;;;;;5.22;1.73;;;13.40;99.90;;;;;;5013725;28;20568;-69
2023/05/18 10:22:36;;;;;;;5.95;1.58;;;13.50;99.90;;;;;;5015175;28;20486;-69
2023/05/18 10:25:04;;;;;;;12.93;2.05;;;13.30;99.90;;;;;;5015061;28;20524;-68
2023/05/18 10:27:34;;;;;;;9.52;1.60;;;13.20;99.90;;;;;;5015674;28;20429;-69
2023/05/18 10:30:02;;;;;;;2.22;1.25;;;13.10;99.90;;;;;;5015468;28;20022;-69
2023/05/18 10:32:29;;;;;;;11.10;1.58;;;13.20;99.90;;;;;;5015794;28;20014;-68
2023/05/18 10:34:56;;;;;;;7.40;2.13;;;13.60;99.90;;;;;;5016000;28;20116;-68
2023/05/18 10:37:23;;;;;;;6.90;1.10;;;13.70;99.90;;;;;;5015353;28;20014;-69
2023/05/18 10:39:54;;;;;;;9.60;2.00;;;13.80;99.90;;;;;;5015377;28;20032;-69
2023/05/18 10:42:21;;;;;;;6.88;1.90;;;13.80;99.90;;;;;;5015481;28;20490;-69
2023/05/18 10:44:47;;;;;;;4.72;1.05;;;13.70;99.90;;;;;;5030697;28;20018;-69
2023/05/18 10:47:14;;;;;;;7.10;1.23;;;13.60;99.90;;;;;;5016141;28;20090;-69
2023/05/18 10:49:42;;;;;;;7.95;1.77;;;13.40;99.90;;;;;;5030451;28;20041;-69
2023/05/18 10:52:11;;;;;;;7.80;1.92;;;13.30;99.90;;;;;;5015382;28;20032;-68
2023/05/18 10:54:39;;;;;;;8.45;2.00;;;13.20;99.90;;;;;;5015203;28;20363;-68
2023/05/18 10:57:13;;;;;;;8.20;2.22;;;13.30;99.90;;;;;;5015512;28;20030;-68
2023/05/18 10:59:41;;;;;;;12.38;1.65;;;13.20;99.90;;;;;;5015343;28;20479;-68
2023/05/18 11:02:11;;;;;;;3.38;1.50;;;13.30;99.90;;;;;;5014957;28;20050;-68
2023/05/18 11:04:39;;;;;;;6.18;1.35;;;13.50;99.90;;;;;;5015245;28;20026;-69
2023/05/18 11:07:09;;;;;;;3.72;2.03;;;13.70;99.90;;;;;;5014913;28;20379;-69
2023/05/18 11:09:39;;;;;;;5.57;1.50;;;13.80;99.90;;;;;;5015328;28;20030;-68
2023/05/18 11:12:14;;;;;;;2.63;1.38;;;13.90;99.90;;;;;;5015277;28;20057;-69
2023/05/18 11:14:49;;;;;;;8.27;1.20;;;13.70;99.90;;;;;;5015001;28;20068;-68
2023/05/18 11:17:24;;;;;;;2.75;1.50;;;13.60;99.90;;;;;;5014850;28;20033;-68
2023/05/18 11:20:08;;;;;;;5.72;1.20;;;13.80;99.90;;;;;;5015576;28;20066;-68
2023/05/18 11:23:00;;;;;;;3.85;1.58;;;13.90;99.90;;;;;;5014367;28;20044;-69
2023/05/18 11:25:35;;;;;;;11.10;1.73;;;14.00;99.90;;;;;;5014376;28;20030;-68
2023/05/18 11:28:04;;;;;;;9.40;1.70;;;13.90;99.90;;;;;;5014552;28;20034;-68
2023/05/18 11:30:33;;;;;;;8.27;1.63;;;14.00;99.90;;;;;;5014944;28;20395;-67
2023/05/18 11:33:22;;;;;;;5.10;1.45;;;14.30;99.90;;;;;;5014708;28;20052;-69
2023/05/18 11:36:10;;;;;;;9.57;2.40;;;14.50;99.90;;;;;;5015046;28;20014;-67
2023/05/18 11:39:03;;;;;;;3.13;1.30;;;14.60;99.90;;;;;;5014697;28;20383;-68
2023/05/18 11:41:34;;;;;;;8.98;1.50;;;14.50;99.90;;;;;;5014608;28;20033;-68
2023/05/18 11:44:13;;;;;;;3.70;1.30;;;14.60;99.90;;;;;;5029375;28;20398;-68
2023/05/18 11:46:52;;;;;;;6.30;1.48;;;14.80;99.90;;;;;;5014385;28;20079;-69
2023/05/18 11:49:22;;;;;;;2.90;1.38;;;14.90;99.90;;;;;;5014540;28;20026;-69
2023/05/18 11:52:23;;;;;;;5.30;1.40;;;15.00;99.90;;;;;;5014439;28;20025;-69
2023/05/18 11:54:54;;;;;;;5.85;1.35;;;15.00;99.90;;;;;;5007367;28;20406;-69
2023/05/18 11:57:39;;;;;;;6.30;2.42;;;15.10;99.90;;;;;;5029311;28;20026;-68
2023/05/18 12:00:07;;;;;;;3.85;1.40;;;15.30;99.90;;;;;;5013945;28;20037;-68
2023/05/18 12:02:33;;;;;;;5.82;1.65;;;15.10;99.90;;;;;;5013918;28;20022;-68
2023/05/18 12:05:01;;;;;;;5.15;1.67;;;14.90;99.90;;;;;;5014262;28;20033;-69
2023/05/18 12:07:29;;;;;;;4.05;1.55;;;14.90;99.90;;;;;;5013921;28;20022;-69
2023/05/18 12:10:13;;;;;;;9.00;2.10;;;15.10;99.90;;;;;;5013853;28;20157;-69
2023/05/18 12:12:39;;;;;;;4.03;1.45;;;15.30;99.90;;;;;;5014052;28;20049;-69
2023/05/18 12:15:07;;;;;;;2.10;1.48;;;15.20;99.90;;;;;;5014134;28;20490;-69
2023/05/18 12:17:46;;;;;;;;;;;15.40;99.90;;;;;;5029351;28;20030;-69
2023/05/18 12:20:16;;;;;;;6.00;1.67;;;15.50;99.90;;;;;;5014076;28;19905;-68
2023/05/18 12:22:49;;;;;;;4.40;1.63;;;15.40;99.90;;;;;;5013168;28;20029;-68
2023/05/18 12:25:14;;;;;;;9.70;1.67;;;15.30;99.90;;;;;;5028630;28;20044;-69
2023/05/18 12:27:43;;;;;;;8.48;1.88;;;15.50;99.90;;;;;;5013978;28;20475;-69
2023/05/18 12:30:12;;;;;;;6.53;1.52;;;15.50;99.90;;;;;;5013573;28;20030;-69
2023/05/18 12:32:43;;;;;;;2.00;1.55;;;15.60;99.90;;;;;;5013991;28;20076;-69
2023/05/18 12:35:08;;;;;;;4.55;1.67;;;15.60;99.90;;;;;;5030812;28;20032;-68
2023/05/18 12:37:43;;;;;;;6.57;1.42;;;15.70;99.90;;;;;;5017714;28;20033;-69
2023/05/18 12:40:10;;;;;;;4.95;1.52;;;15.70;99.90;;;;;;5017457;28;20030;-68
2023/05/18 12:42:37;;;;;;;3.33;1.70;;;15.70;99.90;;;;;;5017631;28;20367;-69
2023/05/18 12:45:03;;;;;;;4.35;1.83;;;15.60;99.90;;;;;;5017216;28;20022;-69
2023/05/18 12:47:31;;;;;;;3.95;1.38;;;15.80;99.90;;;;;;5017002;28;20035;-69
2023/05/18 12:50:01;;;;;;;6.45;1.30;;;15.90;99.90;;;;;;5016390;28;20026;-68
2023/05/18 12:52:27;;;;;;;8.68;1.83;;;15.80;99.90;;;;;;5016663;28;20029;-67
2023/05/18 12:54:57;;;;;;;8.52;2.45;;;16.00;99.90;;;;;;5014748;28;20101;-68
2023/05/18 12:57:26;;;;;;;11.25;2.38;;;16.10;99.90;;;;;;5016033;28;20084;-68
2023/05/18 12:59:53;;;;;;;3.72;1.88;;;16.10;99.90;;;;;;5015947;28;20083;-67